sensor_id;sensor_type;location;lat;lon;timestamp;temperature;humidity
12769;DHT22;6448;48.916;8.990;2023-10-13T00:00:16;22.70;51.30
12769;DHT22;6448;48.916;8.990;2023-10-13T00:01:26;22.70;51.30
12769;DHT22;6448;48.916;8.990;2023-10-13T00:02:28;22.70;51.90
12769;DHT22;6448;48.916;8.990;2023-10-13T00:03:28;22.70;51.30
12769;DHT22;6448;48.916;8.990;2023-10-13T00:04:32;22.70;51.30
12769;DHT22;6448;48.916;8.990;2023-10-13T00:05:36;22.70;51.30
12769;DHT22;6448;48.916;8.990;2023-10-13T00:06:38;22.70;51.30
12769;DHT22;6448;48.916;8.990;2023-10-13T00:07:40;22.70;51.40
12769;DHT22;6448;48.916;8.990;2023-10-13T00:08:41;22.70;51.40
12769;DHT22;6448;48.916;8.990;2023-10-13T00:09:42;22.70;51.50
12769;DHT22;6448;48.916;8.990;2023-10-13T00:10:43;22.70;51.40
12769;DHT22;6448;48.916;8.990;2023-10-13T00:11:45;22.70;51.50
12769;DHT22;6448;48.916;8.990;2023-10-13T00:12:46;22.70;51.50
12769;DHT22;6448;48.916;8.990;2023-10-13T00:13:50;22.70;51.40
12769;DHT22;6448;48.916;8.990;2023-10-13T00:14:52;22.70;51.40
12769;DHT22;6448;48.916;8.990;2023-10-13T00:15:54;22.70;51.50
12769;DHT22;6448;48.916;8.990;2023-10-13T00:16:59;22.70;51.40
12769;DHT22;6448;48.916;8.990;2023-10-13T00:18:05;22.70;51.50
12769;DHT22;6448;48.916;8.990;2023-10-13T00:19:12;22.70;51.40
12769;DHT22;6448;48.916;8.990;2023-10-13T00:20:14;22.70;51.30
12769;DHT22;6448;48.916;8.990;2023-10-13T00:21:17;22.70;51.40
12769;DHT22;6448;48.916;8.990;2023-10-13T00:22:20;22.70;51.30
12769;DHT22;6448;48.916;8.990;2023-10-13T00:23:23;22.70;51.30
12769;DHT22;6448;48.916;8.990;2023-10-13T00:24:27;22.70;51.20
12769;DHT22;6448;48.916;8.990;2023-10-13T00:25:30;22.70;51.20
12769;DHT22;6448;48.916;8.990;2023-10-13T00:26:43;22.70;51.20
12769;DHT22;6448;48.916;8.990;2023-10-13T00:27:45;22.70;51.20
12769;DHT22;6448;48.916;8.990;2023-10-13T00:28:52;22.70;51.10
12769;DHT22;6448;48.916;8.990;2023-10-13T00:30:10;22.70;51.10
12769;DHT22;6448;48.916;8.990;2023-10-13T00:31:22;22.70;51.10
12769;DHT22;6448;48.916;8.990;2023-10-13T00:32:24;22.70;51.00
12769;DHT22;6448;48.916;8.990;2023-10-13T00:33:27;22.70;51.00
12769;DHT22;6448;48.916;8.990;2023-10-13T00:34:32;22.70;50.80
12769;DHT22;6448;48.916;8.990;2023-10-13T00:35:36;22.70;50.70
12769;DHT22;6448;48.916;8.990;2023-10-13T00:36:39;22.60;50.60
12769;DHT22;6448;48.916;8.990;2023-10-13T00:37:49;22.70;50.60
12769;DHT22;6448;48.916;8.990;2023-10-13T00:38:53;22.70;50.60
12769;DHT22;6448;48.916;8.990;2023-10-13T00:39:56;22.60;50.50
12769;DHT22;6448;48.916;8.990;2023-10-13T00:41:01;22.60;50.50
12769;DHT22;6448;48.916;8.990;2023-10-13T00:42:07;22.60;50.40
12769;DHT22;6448;48.916;8.990;2023-10-13T00:43:18;22.60;50.90
12769;DHT22;6448;48.916;8.990;2023-10-13T00:44:35;22.60;50.20
12769;DHT22;6448;48.916;8.990;2023-10-13T00:45:41;22.50;50.10
12769;DHT22;6448;48.916;8.990;2023-10-13T00:46:44;22.50;50.10
12769;DHT22;6448;48.916;8.990;2023-10-13T00:47:46;22.50;50.10
12769;DHT22;6448;48.916;8.990;2023-10-13T00:48:49;22.50;50.00
12769;DHT22;6448;48.916;8.990;2023-10-13T00:49:53;22.50;50.00
12769;DHT22;6448;48.916;8.990;2023-10-13T00:50:55;22.50;50.00
12769;DHT22;6448;48.916;8.990;2023-10-13T00:51:57;22.50;50.00
12769;DHT22;6448;48.916;8.990;2023-10-13T00:52:59;22.50;49.90
12769;DHT22;6448;48.916;8.990;2023-10-13T00:54:05;22.40;49.90
12769;DHT22;6448;48.916;8.990;2023-10-13T00:55:08;22.40;50.00
12769;DHT22;6448;48.916;8.990;2023-10-13T00:56:14;22.70;50.10
12769;DHT22;6448;48.916;8.990;2023-10-13T00:57:22;22.40;50.10
12769;DHT22;6448;48.916;8.990;2023-10-13T00:58:27;22.40;50.20
12769;DHT22;6448;48.916;8.990;2023-10-13T00:59:29;22.40;50.20
12769;DHT22;6448;48.916;8.990;2023-10-13T01:00:34;22.40;50.30
12769;DHT22;6448;48.916;8.990;2023-10-13T01:01:48;22.40;50.30
12769;DHT22;6448;48.916;8.990;2023-10-13T01:02:55;22.40;50.40
12769;DHT22;6448;48.916;8.990;2023-10-13T01:03:56;22.40;50.40
12769;DHT22;6448;48.916;8.990;2023-10-13T01:04:59;22.30;50.40
12769;DHT22;6448;48.916;8.990;2023-10-13T01:06:00;22.30;50.50
12769;DHT22;6448;48.916;8.990;2023-10-13T01:07:04;22.30;50.40
12769;DHT22;6448;48.916;8.990;2023-10-13T01:08:08;22.30;50.50
12769;DHT22;6448;48.916;8.990;2023-10-13T01:09:11;22.30;50.50
12769;DHT22;6448;48.916;8.990;2023-10-13T01:10:13;22.30;50.50
12769;DHT22;6448;48.916;8.990;2023-10-13T01:11:15;22.30;50.50
12769;DHT22;6448;48.916;8.990;2023-10-13T01:12:16;22.30;50.50
12769;DHT22;6448;48.916;8.990;2023-10-13T01:13:18;22.30;51.10
12769;DHT22;6448;48.916;8.990;2023-10-13T01:14:22;22.30;50.50
12769;DHT22;6448;48.916;8.990;2023-10-13T01:15:27;22.30;50.50
12769;DHT22;6448;48.916;8.990;2023-10-13T01:16:31;22.30;50.50
12769;DHT22;6448;48.916;8.990;2023-10-13T01:17:35;22.30;50.40
12769;DHT22;6448;48.916;8.990;2023-10-13T01:18:37;22.30;50.40
12769;DHT22;6448;48.916;8.990;2023-10-13T01:19:48;22.30;50.50
12769;DHT22;6448;48.916;8.990;2023-10-13T01:20:49;22.30;50.50
12769;DHT22;6448;48.916;8.990;2023-10-13T01:21:53;22.20;50.40
12769;DHT22;6448;48.916;8.990;2023-10-13T01:22:57;22.20;50.50
12769;DHT22;6448;48.916;8.990;2023-10-13T01:24:00;22.20;50.60
12769;DHT22;6448;48.916;8.990;2023-10-13T01:25:02;22.20;50.60
12769;DHT22;6448;48.916;8.990;2023-10-13T01:26:07;22.20;50.60
12769;DHT22;6448;48.916;8.990;2023-10-13T01:27:08;22.20;50.60
12769;DHT22;6448;48.916;8.990;2023-10-13T01:28:17;22.20;50.60
12769;DHT22;6448;48.916;8.990;2023-10-13T01:29:18;22.10;50.60
12769;DHT22;6448;48.916;8.990;2023-10-13T01:30:19;22.10;50.60
12769;DHT22;6448;48.916;8.990;2023-10-13T01:31:23;22.10;50.60
12769;DHT22;6448;48.916;8.990;2023-10-13T01:32:29;22.10;50.60
12769;DHT22;6448;48.916;8.990;2023-10-13T01:33:30;22.10;50.60
12769;DHT22;6448;48.916;8.990;2023-10-13T01:34:33;22.10;50.60
12769;DHT22;6448;48.916;8.990;2023-10-13T01:35:34;22.10;50.70
12769;DHT22;6448;48.916;8.990;2023-10-13T01:36:38;22.10;50.60
12769;DHT22;6448;48.916;8.990;2023-10-13T01:37:40;22.10;50.70
12769;DHT22;6448;48.916;8.990;2023-10-13T01:38:41;22.10;50.60
12769;DHT22;6448;48.916;8.990;2023-10-13T01:39:44;22.10;50.60
12769;DHT22;6448;48.916;8.990;2023-10-13T01:40:48;22.10;50.60
12769;DHT22;6448;48.916;8.990;2023-10-13T01:41:52;22.10;50.60
12769;DHT22;6448;48.916;8.990;2023-10-13T01:42:55;22.10;50.60
12769;DHT22;6448;48.916;8.990;2023-10-13T01:43:56;22.00;50.60
12769;DHT22;6448;48.916;8.990;2023-10-13T01:44:57;22.00;50.60
12769;DHT22;6448;48.916;8.990;2023-10-13T01:46:05;22.00;50.60
12769;DHT22;6448;48.916;8.990;2023-10-13T01:47:09;22.00;50.70
12769;DHT22;6448;48.916;8.990;2023-10-13T01:48:09;22.00;50.70
12769;DHT22;6448;48.916;8.990;2023-10-13T01:49:10;22.00;50.70
12769;DHT22;6448;48.916;8.990;2023-10-13T01:50:12;22.00;50.70
12769;DHT22;6448;48.916;8.990;2023-10-13T01:51:19;22.00;50.70
12769;DHT22;6448;48.916;8.990;2023-10-13T01:52:23;22.00;50.70
12769;DHT22;6448;48.916;8.990;2023-10-13T01:53:25;22.00;50.70
12769;DHT22;6448;48.916;8.990;2023-10-13T01:54:29;22.00;50.70
12769;DHT22;6448;48.916;8.990;2023-10-13T01:55:31;22.00;50.70
12769;DHT22;6448;48.916;8.990;2023-10-13T01:56:39;21.90;50.60
12769;DHT22;6448;48.916;8.990;2023-10-13T01:57:43;22.00;50.70
12769;DHT22;6448;48.916;8.990;2023-10-13T01:58:48;21.90;50.70
12769;DHT22;6448;48.916;8.990;2023-10-13T01:59:50;21.90;50.70
12769;DHT22;6448;48.916;8.990;2023-10-13T02:00:52;21.90;50.70
12769;DHT22;6448;48.916;8.990;2023-10-13T02:01:53;21.90;50.70
12769;DHT22;6448;48.916;8.990;2023-10-13T02:02:58;21.90;50.70
12769;DHT22;6448;48.916;8.990;2023-10-13T02:04:03;21.90;50.80
12769;DHT22;6448;48.916;8.990;2023-10-13T02:05:04;21.90;50.80
12769;DHT22;6448;48.916;8.990;2023-10-13T02:06:05;21.90;50.80
12769;DHT22;6448;48.916;8.990;2023-10-13T02:07:10;21.90;50.80
12769;DHT22;6448;48.916;8.990;2023-10-13T02:08:16;21.90;50.80
12769;DHT22;6448;48.916;8.990;2023-10-13T02:09:18;21.90;50.70
12769;DHT22;6448;48.916;8.990;2023-10-13T02:10:26;21.80;50.80
12769;DHT22;6448;48.916;8.990;2023-10-13T02:11:30;21.70;50.70
12769;DHT22;6448;48.916;8.990;2023-10-13T02:12:31;21.80;50.90
12769;DHT22;6448;48.916;8.990;2023-10-13T02:13:42;21.90;50.90
12769;DHT22;6448;48.916;8.990;2023-10-13T02:14:48;21.70;50.80
12769;DHT22;6448;48.916;8.990;2023-10-13T02:15:53;21.80;51.00
12769;DHT22;6448;48.916;8.990;2023-10-13T02:16:56;21.80;51.00
12769;DHT22;6448;48.916;8.990;2023-10-13T02:18:14;21.80;51.00
12769;DHT22;6448;48.916;8.990;2023-10-13T02:19:21;21.70;50.90
12769;DHT22;6448;48.916;8.990;2023-10-13T02:20:21;21.70;50.80
12769;DHT22;6448;48.916;8.990;2023-10-13T02:21:25;21.70;50.80
12769;DHT22;6448;48.916;8.990;2023-10-13T02:22:32;21.70;50.80
12769;DHT22;6448;48.916;8.990;2023-10-13T02:23:32;21.70;50.70
12769;DHT22;6448;48.916;8.990;2023-10-13T02:24:40;21.70;50.70
12769;DHT22;6448;48.916;8.990;2023-10-13T02:25:41;21.70;50.80
12769;DHT22;6448;48.916;8.990;2023-10-13T02:26:48;21.70;50.80
12769;DHT22;6448;48.916;8.990;2023-10-13T02:27:50;21.70;50.80
12769;DHT22;6448;48.916;8.990;2023-10-13T02:29:00;21.70;50.80
12769;DHT22;6448;48.916;8.990;2023-10-13T02:30:05;21.70;50.90
12769;DHT22;6448;48.916;8.990;2023-10-13T02:31:07;21.70;50.90
12769;DHT22;6448;48.916;8.990;2023-10-13T02:32:08;21.70;50.80
12769;DHT22;6448;48.916;8.990;2023-10-13T02:33:15;21.60;50.80
12769;DHT22;6448;48.916;8.990;2023-10-13T02:34:22;21.60;50.90
12769;DHT22;6448;48.916;8.990;2023-10-13T02:35:24;21.60;51.20
12769;DHT22;6448;48.916;8.990;2023-10-13T02:36:32;21.60;51.30
12769;DHT22;6448;48.916;8.990;2023-10-13T02:37:36;21.60;51.40
12769;DHT22;6448;48.916;8.990;2023-10-13T02:38:37;21.60;51.40
12769;DHT22;6448;48.916;8.990;2023-10-13T02:39:46;21.60;51.40
12769;DHT22;6448;48.916;8.990;2023-10-13T02:40:47;21.50;51.30
12769;DHT22;6448;48.916;8.990;2023-10-13T02:41:49;21.50;51.20
12769;DHT22;6448;48.916;8.990;2023-10-13T02:42:51;21.50;51.20
12769;DHT22;6448;48.916;8.990;2023-10-13T02:43:53;21.50;51.20
12769;DHT22;6448;48.916;8.990;2023-10-13T02:44:55;21.50;51.10
12769;DHT22;6448;48.916;8.990;2023-10-13T02:45:58;21.50;51.10
12769;DHT22;6448;48.916;8.990;2023-10-13T02:47:00;21.50;51.10
12769;DHT22;6448;48.916;8.990;2023-10-13T02:48:01;21.50;51.10
12769;DHT22;6448;48.916;8.990;2023-10-13T02:49:12;21.40;51.10
12769;DHT22;6448;48.916;8.990;2023-10-13T02:50:14;21.40;51.10
12769;DHT22;6448;48.916;8.990;2023-10-13T02:51:19;21.40;51.20
12769;DHT22;6448;48.916;8.990;2023-10-13T02:52:22;21.40;51.20
12769;DHT22;6448;48.916;8.990;2023-10-13T02:53:25;21.40;51.20
12769;DHT22;6448;48.916;8.990;2023-10-13T02:54:28;21.40;51.20
12769;DHT22;6448;48.916;8.990;2023-10-13T02:55:31;21.40;51.30
12769;DHT22;6448;48.916;8.990;2023-10-13T02:56:33;21.30;51.20
12769;DHT22;6448;48.916;8.990;2023-10-13T02:57:35;21.30;51.20
12769;DHT22;6448;48.916;8.990;2023-10-13T02:58:36;21.30;51.20
12769;DHT22;6448;48.916;8.990;2023-10-13T02:59:45;21.30;51.30
12769;DHT22;6448;48.916;8.990;2023-10-13T03:00:47;21.30;51.30
12769;DHT22;6448;48.916;8.990;2023-10-13T03:01:47;21.30;51.30
12769;DHT22;6448;48.916;8.990;2023-10-13T03:02:52;21.30;51.30
12769;DHT22;6448;48.916;8.990;2023-10-13T03:03:58;21.30;51.30
12769;DHT22;6448;48.916;8.990;2023-10-13T03:04:59;21.30;51.30
12769;DHT22;6448;48.916;8.990;2023-10-13T03:06:09;21.30;51.20
12769;DHT22;6448;48.916;8.990;2023-10-13T03:07:12;21.30;51.20
12769;DHT22;6448;48.916;8.990;2023-10-13T03:08:16;21.30;51.10
12769;DHT22;6448;48.916;8.990;2023-10-13T03:09:27;21.30;51.10
12769;DHT22;6448;48.916;8.990;2023-10-13T03:10:28;21.30;51.10
12769;DHT22;6448;48.916;8.990;2023-10-13T03:11:29;21.20;51.00
12769;DHT22;6448;48.916;8.990;2023-10-13T03:12:33;21.20;51.00
12769;DHT22;6448;48.916;8.990;2023-10-13T03:13:35;21.20;51.10
12769;DHT22;6448;48.916;8.990;2023-10-13T03:14:37;21.20;51.10
12769;DHT22;6448;48.916;8.990;2023-10-13T03:15:39;21.20;51.10
12769;DHT22;6448;48.916;8.990;2023-10-13T03:16:40;21.20;51.10
12769;DHT22;6448;48.916;8.990;2023-10-13T03:17:41;21.20;51.50
12769;DHT22;6448;48.916;8.990;2023-10-13T03:18:45;21.20;51.20
12769;DHT22;6448;48.916;8.990;2023-10-13T03:19:54;21.20;51.20
12769;DHT22;6448;48.916;8.990;2023-10-13T03:20:55;21.10;51.20
12769;DHT22;6448;48.916;8.990;2023-10-13T03:22:00;21.10;51.30
12769;DHT22;6448;48.916;8.990;2023-10-13T03:23:09;21.10;51.30
12769;DHT22;6448;48.916;8.990;2023-10-13T03:24:10;21.10;51.30
12769;DHT22;6448;48.916;8.990;2023-10-13T03:25:14;21.10;51.30
12769;DHT22;6448;48.916;8.990;2023-10-13T03:26:25;21.10;51.30
12769;DHT22;6448;48.916;8.990;2023-10-13T03:27:26;21.10;51.20
12769;DHT22;6448;48.916;8.990;2023-10-13T03:28:42;21.10;51.20
12769;DHT22;6448;48.916;8.990;2023-10-13T03:29:47;21.00;51.20
12769;DHT22;6448;48.916;8.990;2023-10-13T03:30:48;21.00;51.80
12769;DHT22;6448;48.916;8.990;2023-10-13T03:31:53;21.00;51.20
12769;DHT22;6448;48.916;8.990;2023-10-13T03:33:08;21.00;51.20
12769;DHT22;6448;48.916;8.990;2023-10-13T03:34:12;21.00;51.20
12769;DHT22;6448;48.916;8.990;2023-10-13T03:35:14;21.10;51.20
12769;DHT22;6448;48.916;8.990;2023-10-13T03:36:24;21.00;51.10
12769;DHT22;6448;48.916;8.990;2023-10-13T03:37:56;21.00;51.10
12769;DHT22;6448;48.916;8.990;2023-10-13T03:38:57;21.00;51.10
12769;DHT22;6448;48.916;8.990;2023-10-13T03:39:59;21.00;51.10
12769;DHT22;6448;48.916;8.990;2023-10-13T03:41:00;21.00;51.20
12769;DHT22;6448;48.916;8.990;2023-10-13T03:42:12;20.90;51.10
12769;DHT22;6448;48.916;8.990;2023-10-13T03:43:19;20.90;51.20
12769;DHT22;6448;48.916;8.990;2023-10-13T03:44:25;20.90;51.20
12769;DHT22;6448;48.916;8.990;2023-10-13T03:45:33;20.90;51.20
12769;DHT22;6448;48.916;8.990;2023-10-13T03:46:38;20.90;51.30
12769;DHT22;6448;48.916;8.990;2023-10-13T03:47:41;20.90;51.30
12769;DHT22;6448;48.916;8.990;2023-10-13T03:48:46;20.90;51.30
12769;DHT22;6448;48.916;8.990;2023-10-13T03:49:53;20.90;51.20
12769;DHT22;6448;48.916;8.990;2023-10-13T03:51:15;20.90;51.20
12769;DHT22;6448;48.916;8.990;2023-10-13T03:52:16;20.90;51.20
12769;DHT22;6448;48.916;8.990;2023-10-13T03:53:23;20.80;51.20
12769;DHT22;6448;48.916;8.990;2023-10-13T03:54:26;20.80;51.20
12769;DHT22;6448;48.916;8.990;2023-10-13T03:55:30;20.80;51.20
12769;DHT22;6448;48.916;8.990;2023-10-13T03:56:35;20.80;51.30
12769;DHT22;6448;48.916;8.990;2023-10-13T03:57:39;20.80;51.40
12769;DHT22;6448;48.916;8.990;2023-10-13T03:58:42;20.80;51.50
12769;DHT22;6448;48.916;8.990;2023-10-13T03:59:47;20.80;51.50
12769;DHT22;6448;48.916;8.990;2023-10-13T04:00:50;20.80;51.60
12769;DHT22;6448;48.916;8.990;2023-10-13T04:01:50;20.80;51.70
12769;DHT22;6448;48.916;8.990;2023-10-13T04:03:00;20.80;51.80
12769;DHT22;6448;48.916;8.990;2023-10-13T04:04:10;20.80;51.90
12769;DHT22;6448;48.916;8.990;2023-10-13T04:05:12;20.70;51.90
12769;DHT22;6448;48.916;8.990;2023-10-13T04:06:31;20.80;51.90
12769;DHT22;6448;48.916;8.990;2023-10-13T04:07:50;20.70;51.90
12769;DHT22;6448;48.916;8.990;2023-10-13T04:09:06;20.80;52.00
12769;DHT22;6448;48.916;8.990;2023-10-13T04:10:21;20.70;52.00
12769;DHT22;6448;48.916;8.990;2023-10-13T04:11:41;20.70;52.00
12769;DHT22;6448;48.916;8.990;2023-10-13T04:13:10;20.70;52.00
12769;DHT22;6448;48.916;8.990;2023-10-13T04:14:45;20.70;52.00
12769;DHT22;6448;48.916;8.990;2023-10-13T04:16:07;20.70;52.10
12769;DHT22;6448;48.916;8.990;2023-10-13T04:17:23;20.70;52.10
12769;DHT22;6448;48.916;8.990;2023-10-13T04:18:26;20.70;52.10
12769;DHT22;6448;48.916;8.990;2023-10-13T04:19:34;20.70;52.00
12769;DHT22;6448;48.916;8.990;2023-10-13T04:20:56;20.70;52.10
12769;DHT22;6448;48.916;8.990;2023-10-13T04:22:08;20.70;52.00
12769;DHT22;6448;48.916;8.990;2023-10-13T04:23:21;20.60;52.00
12769;DHT22;6448;48.916;8.990;2023-10-13T04:24:27;20.60;52.10
12769;DHT22;6448;48.916;8.990;2023-10-13T04:25:40;20.70;52.20
12769;DHT22;6448;48.916;8.990;2023-10-13T04:27:04;20.60;52.70
12769;DHT22;6448;48.916;8.990;2023-10-13T04:28:24;20.60;52.00
12769;DHT22;6448;48.916;8.990;2023-10-13T04:29:51;20.60;52.00
12769;DHT22;6448;48.916;8.990;2023-10-13T04:30:57;20.60;51.90
12769;DHT22;6448;48.916;8.990;2023-10-13T04:32:01;20.60;51.90
12769;DHT22;6448;48.916;8.990;2023-10-13T04:33:14;20.60;52.00
12769;DHT22;6448;48.916;8.990;2023-10-13T04:34:36;20.60;52.10
12769;DHT22;6448;48.916;8.990;2023-10-13T04:35:40;20.70;52.10
12769;DHT22;6448;48.916;8.990;2023-10-13T04:36:48;20.60;52.10
12769;DHT22;6448;48.916;8.990;2023-10-13T04:37:56;20.50;52.10
12769;DHT22;6448;48.916;8.990;2023-10-13T04:39:02;20.50;52.10
12769;DHT22;6448;48.916;8.990;2023-10-13T04:40:09;20.50;52.20
12769;DHT22;6448;48.916;8.990;2023-10-13T04:41:11;20.50;52.20
12769;DHT22;6448;48.916;8.990;2023-10-13T04:42:22;20.50;52.20
12769;DHT22;6448;48.916;8.990;2023-10-13T04:43:39;20.50;52.00
12769;DHT22;6448;48.916;8.990;2023-10-13T04:44:55;20.50;52.00
12769;DHT22;6448;48.916;8.990;2023-10-13T04:46:03;20.50;51.90
12769;DHT22;6448;48.916;8.990;2023-10-13T04:47:26;20.50;51.80
12769;DHT22;6448;48.916;8.990;2023-10-13T04:48:29;20.50;51.80
12769;DHT22;6448;48.916;8.990;2023-10-13T04:49:40;20.50;51.70
12769;DHT22;6448;48.916;8.990;2023-10-13T04:50:51;20.50;51.60
12769;DHT22;6448;48.916;8.990;2023-10-13T04:52:00;20.50;51.60
12769;DHT22;6448;48.916;8.990;2023-10-13T04:53:13;20.40;51.40
12769;DHT22;6448;48.916;8.990;2023-10-13T04:54:34;20.40;51.40
12769;DHT22;6448;48.916;8.990;2023-10-13T04:55:49;20.40;51.30
12769;DHT22;6448;48.916;8.990;2023-10-13T04:57:08;20.40;51.20
12769;DHT22;6448;48.916;8.990;2023-10-13T04:58:31;20.40;51.20
12769;DHT22;6448;48.916;8.990;2023-10-13T05:00:07;20.40;51.20
12769;DHT22;6448;48.916;8.990;2023-10-13T05:01:26;20.30;51.10
12769;DHT22;6448;48.916;8.990;2023-10-13T05:02:47;20.30;51.00
12769;DHT22;6448;48.916;8.990;2023-10-13T05:04:16;20.30;51.00
12769;DHT22;6448;48.916;8.990;2023-10-13T05:05:42;20.40;51.00
12769;DHT22;6448;48.916;8.990;2023-10-13T05:07:06;20.30;51.00
12769;DHT22;6448;48.916;8.990;2023-10-13T05:08:25;20.40;51.00
12769;DHT22;6448;48.916;8.990;2023-10-13T05:09:44;20.30;51.00
12769;DHT22;6448;48.916;8.990;2023-10-13T05:11:04;20.30;51.00
12769;DHT22;6448;48.916;8.990;2023-10-13T05:12:24;20.30;51.00
12769;DHT22;6448;48.916;8.990;2023-10-13T05:13:43;20.20;51.20
12769;DHT22;6448;48.916;8.990;2023-10-13T05:15:03;20.20;51.10
12769;DHT22;6448;48.916;8.990;2023-10-13T05:16:22;20.20;51.10
12769;DHT22;6448;48.916;8.990;2023-10-13T05:17:41;20.20;51.10
12769;DHT22;6448;48.916;8.990;2023-10-13T05:19:02;20.20;51.30
12769;DHT22;6448;48.916;8.990;2023-10-13T05:20:21;20.20;51.30
12769;DHT22;6448;48.916;8.990;2023-10-13T05:21:41;20.20;51.40
12769;DHT22;6448;48.916;8.990;2023-10-13T05:23:14;20.20;51.50
12769;DHT22;6448;48.916;8.990;2023-10-13T05:24:33;20.20;51.70
12769;DHT22;6448;48.916;8.990;2023-10-13T05:25:53;20.20;51.90
12769;DHT22;6448;48.916;8.990;2023-10-13T05:27:12;20.10;52.00
12769;DHT22;6448;48.916;8.990;2023-10-13T05:28:32;20.10;52.10
12769;DHT22;6448;48.916;8.990;2023-10-13T05:29:51;20.20;52.20
12769;DHT22;6448;48.916;8.990;2023-10-13T05:31:10;20.10;52.30
12769;DHT22;6448;48.916;8.990;2023-10-13T05:32:30;20.10;52.50
12769;DHT22;6448;48.916;8.990;2023-10-13T05:33:49;20.10;52.50
12769;DHT22;6448;48.916;8.990;2023-10-13T05:35:10;20.10;52.50
12769;DHT22;6448;48.916;8.990;2023-10-13T05:36:30;20.10;52.50
12769;DHT22;6448;48.916;8.990;2023-10-13T05:37:49;20.10;52.60
12769;DHT22;6448;48.916;8.990;2023-10-13T05:39:08;20.10;52.60
12769;DHT22;6448;48.916;8.990;2023-10-13T05:40:28;20.10;52.60
12769;DHT22;6448;48.916;8.990;2023-10-13T05:41:48;20.10;52.70
12769;DHT22;6448;48.916;8.990;2023-10-13T05:43:07;20.00;52.60
12769;DHT22;6448;48.916;8.990;2023-10-13T05:44:27;20.00;52.70
12769;DHT22;6448;48.916;8.990;2023-10-13T05:45:38;20.00;52.70
12769;DHT22;6448;48.916;8.990;2023-10-13T05:47:00;20.00;52.70
12769;DHT22;6448;48.916;8.990;2023-10-13T05:48:43;20.00;52.70
12769;DHT22;6448;48.916;8.990;2023-10-13T05:50:11;20.00;52.70
12769;DHT22;6448;48.916;8.990;2023-10-13T05:51:49;20.00;52.70
12769;DHT22;6448;48.916;8.990;2023-10-13T05:52:58;20.00;52.70
12769;DHT22;6448;48.916;8.990;2023-10-13T05:54:18;20.00;52.70
12769;DHT22;6448;48.916;8.990;2023-10-13T05:55:51;20.00;52.70
12769;DHT22;6448;48.916;8.990;2023-10-13T05:57:11;20.00;52.80
12769;DHT22;6448;48.916;8.990;2023-10-13T05:58:35;20.00;52.80
12769;DHT22;6448;48.916;8.990;2023-10-13T05:59:54;19.90;52.70
12769;DHT22;6448;48.916;8.990;2023-10-13T06:01:14;19.90;52.70
12769;DHT22;6448;48.916;8.990;2023-10-13T06:02:45;19.90;52.70
12769;DHT22;6448;48.916;8.990;2023-10-13T06:04:04;19.90;52.80
12769;DHT22;6448;48.916;8.990;2023-10-13T06:05:24;19.90;52.80
12769;DHT22;6448;48.916;8.990;2023-10-13T06:06:44;19.90;52.80
12769;DHT22;6448;48.916;8.990;2023-10-13T06:08:04;19.90;52.90
12769;DHT22;6448;48.916;8.990;2023-10-13T06:09:24;19.90;53.00
12769;DHT22;6448;48.916;8.990;2023-10-13T06:10:45;19.90;53.00
12769;DHT22;6448;48.916;8.990;2023-10-13T06:12:04;19.90;53.10
12769;DHT22;6448;48.916;8.990;2023-10-13T06:13:23;19.90;53.20
12769;DHT22;6448;48.916;8.990;2023-10-13T06:14:45;19.90;53.20
12769;DHT22;6448;48.916;8.990;2023-10-13T06:16:11;19.80;53.20
12769;DHT22;6448;48.916;8.990;2023-10-13T06:17:31;19.80;53.90
12769;DHT22;6448;48.916;8.990;2023-10-13T06:18:50;19.80;53.30
12769;DHT22;6448;48.916;8.990;2023-10-13T06:20:10;19.80;53.30
12769;DHT22;6448;48.916;8.990;2023-10-13T06:21:30;19.80;53.40
12769;DHT22;6448;48.916;8.990;2023-10-13T06:22:49;19.80;53.40
12769;DHT22;6448;48.916;8.990;2023-10-13T06:24:09;19.80;53.50
12769;DHT22;6448;48.916;8.990;2023-10-13T06:25:28;19.80;53.50
12769;DHT22;6448;48.916;8.990;2023-10-13T06:26:48;19.80;53.50
12769;DHT22;6448;48.916;8.990;2023-10-13T06:28:07;19.80;53.60
12769;DHT22;6448;48.916;8.990;2023-10-13T06:29:29;19.80;53.60
12769;DHT22;6448;48.916;8.990;2023-10-13T06:30:31;19.80;53.60
12769;DHT22;6448;48.916;8.990;2023-10-13T06:31:33;19.80;53.60
12769;DHT22;6448;48.916;8.990;2023-10-13T06:32:35;19.80;53.60
12769;DHT22;6448;48.916;8.990;2023-10-13T06:33:40;19.80;53.70
12769;DHT22;6448;48.916;8.990;2023-10-13T06:34:45;19.80;53.70
12769;DHT22;6448;48.916;8.990;2023-10-13T06:35:49;19.80;53.70
12769;DHT22;6448;48.916;8.990;2023-10-13T06:36:53;19.80;53.70
12769;DHT22;6448;48.916;8.990;2023-10-13T06:37:55;19.80;53.70
12769;DHT22;6448;48.916;8.990;2023-10-13T06:39:00;19.80;53.70
12769;DHT22;6448;48.916;8.990;2023-10-13T06:40:16;19.80;53.80
12769;DHT22;6448;48.916;8.990;2023-10-13T06:41:26;19.80;53.80
12769;DHT22;6448;48.916;8.990;2023-10-13T06:42:31;19.80;53.80
12769;DHT22;6448;48.916;8.990;2023-10-13T06:43:35;19.80;53.80
12769;DHT22;6448;48.916;8.990;2023-10-13T06:44:40;19.80;53.80
12769;DHT22;6448;48.916;8.990;2023-10-13T06:45:46;19.80;53.80
12769;DHT22;6448;48.916;8.990;2023-10-13T06:46:57;19.90;53.90
12769;DHT22;6448;48.916;8.990;2023-10-13T06:48:02;19.80;53.80
12769;DHT22;6448;48.916;8.990;2023-10-13T06:49:02;19.80;53.90
12769;DHT22;6448;48.916;8.990;2023-10-13T06:50:05;19.80;53.90
12769;DHT22;6448;48.916;8.990;2023-10-13T06:51:15;19.80;53.90
12769;DHT22;6448;48.916;8.990;2023-10-13T06:52:23;19.80;53.80
12769;DHT22;6448;48.916;8.990;2023-10-13T06:53:24;19.80;53.80
12769;DHT22;6448;48.916;8.990;2023-10-13T06:54:26;19.80;53.80
12769;DHT22;6448;48.916;8.990;2023-10-13T06:55:29;19.80;53.80
12769;DHT22;6448;48.916;8.990;2023-10-13T06:56:35;19.90;53.90
12769;DHT22;6448;48.916;8.990;2023-10-13T06:57:40;19.90;53.90
12769;DHT22;6448;48.916;8.990;2023-10-13T06:58:44;19.90;53.90
12769;DHT22;6448;48.916;8.990;2023-10-13T06:59:47;19.90;53.90
12769;DHT22;6448;48.916;8.990;2023-10-13T07:00:48;19.90;53.90
12769;DHT22;6448;48.916;8.990;2023-10-13T07:01:53;19.90;54.00
12769;DHT22;6448;48.916;8.990;2023-10-13T07:02:55;19.90;54.00
12769;DHT22;6448;48.916;8.990;2023-10-13T07:04:06;19.90;53.90
12769;DHT22;6448;48.916;8.990;2023-10-13T07:05:13;19.90;54.10
12769;DHT22;6448;48.916;8.990;2023-10-13T07:06:14;19.90;54.00
12769;DHT22;6448;48.916;8.990;2023-10-13T07:07:20;20.00;54.10
12769;DHT22;6448;48.916;8.990;2023-10-13T07:08:24;20.00;54.00
12769;DHT22;6448;48.916;8.990;2023-10-13T07:09:26;19.90;54.00
12769;DHT22;6448;48.916;8.990;2023-10-13T07:10:50;19.90;54.00
12769;DHT22;6448;48.916;8.990;2023-10-13T07:12:02;19.90;54.10
12769;DHT22;6448;48.916;8.990;2023-10-13T07:13:07;19.90;54.10
12769;DHT22;6448;48.916;8.990;2023-10-13T07:14:08;20.00;54.20
12769;DHT22;6448;48.916;8.990;2023-10-13T07:15:11;19.90;54.20
12769;DHT22;6448;48.916;8.990;2023-10-13T07:16:19;20.00;54.30
12769;DHT22;6448;48.916;8.990;2023-10-13T07:17:20;20.00;54.30
12769;DHT22;6448;48.916;8.990;2023-10-13T07:18:26;20.00;54.30
12769;DHT22;6448;48.916;8.990;2023-10-13T07:19:26;20.00;54.40